Time;durP1;ratioP1;P1;durP2;ratioP2;P2;SDS_P1;SDS_P2;PMS_P1;PMS_P2;Temp;Humidity;BMP_temperature;BMP_pressure;BME280_temperature;BME280_humidity;BME280_pressure;Samples;Min_cycle;Max_cycle;Signal;HPM_P1;HPM_P2
2021/10/09 00:00:43;;;;;;;35.33;10.13;;;;;;;10.44;45.78;102678.24;1834151;78;21364;-71
2021/10/09 00:03:15;;;;;;;33.00;10.60;;;;;;;10.44;45.73;102681.55;1834040;78;21155;-73
2021/10/09 00:05:48;;;;;;;37.15;10.38;;;;;;;10.43;45.69;102677.92;1833887;78;21210;-71
2021/10/09 00:08:23;;;;;;;23.42;10.18;;;;;;;10.41;45.81;102681.42;1831271;78;21213;-71
2021/10/09 00:10:55;;;;;;;26.00;10.25;;;;;;;10.40;45.84;102679.72;1812423;79;21278;-70
2021/10/09 00:13:28;;;;;;;25.43;9.68;;;;;;;10.38;45.84;102677.70;1814338;79;21907;-71
2021/10/09 00:16:01;;;;;;;29.45;10.35;;;;;;;10.36;45.88;102679.84;1793070;79;21171;-72
2021/10/09 00:18:33;;;;;;;33.00;9.78;;;;;;;10.36;45.81;102681.75;1816831;79;21321;-72
2021/10/09 00:21:06;;;;;;;30.77;9.65;;;;;;;10.33;46.09;102677.47;1816462;79;21127;-72
2021/10/09 00:23:39;;;;;;;26.67;9.47;;;;;;;10.32;46.25;102677.67;1814115;79;21206;-73
2021/10/09 00:26:13;;;;;;;25.48;9.05;;;;;;;10.31;46.05;102673.19;1811634;78;21297;-74
2021/10/09 00:28:46;;;;;;;28.02;9.63;;;;;;;10.31;46.14;102677.35;1802205;79;21385;-70
2021/10/09 00:31:19;;;;;;;31.05;10.48;;;;;;;10.28;46.10;102686.95;1782970;79;21225;-70
2021/10/09 00:33:53;;;;;;;30.43;11.95;;;;;;;10.27;46.23;102678.86;1779899;80;21237;-70
2021/10/09 00:36:27;;;;;;;32.93;10.82;;;;;;;10.24;46.31;102680.13;1779823;80;21225;-71
2021/10/09 00:39:00;;;;;;;;;;;;;;;10.20;46.38;102681.60;1782221;80;21956;-73
2021/10/09 00:41:33;;;;;;;26.65;10.60;;;;;;;10.17;46.44;102680.64;1779749;80;20261;-73
2021/10/09 00:44:15;;;;;;;35.80;10.30;;;;;;;10.12;46.69;102680.41;1758579;80;21363;-72
2021/10/09 00:46:48;;;;;;;38.28;10.35;;;;;;;10.10;46.71;102676.13;1779506;80;21292;-71
2021/10/09 00:49:22;;;;;;;38.55;11.63;;;;;;;10.08;46.79;102674.95;1779553;79;21715;-72
2021/10/09 00:51:54;;;;;;;36.70;11.33;;;;;;;10.07;46.87;102676.53;1779847;80;21898;-78
2021/10/09 00:54:27;;;;;;;22.70;9.80;;;;;;;10.04;46.98;102668.09;1779941;79;22326;-70
2021/10/09 00:57:01;;;;;;;35.95;12.03;;;;;;;10.03;46.95;102659.45;1779837;80;21367;-72
2021/10/09 00:59:35;;;;;;;40.35;10.70;;;;;;;10.01;46.88;102664.84;1779445;80;21244;-72
2021/10/09 01:02:07;;;;;;;;;;;;;;;10.00;47.07;102659.84;1736657;80;21366;-71
2021/10/09 01:04:44;;;;;;;;;;;;;;;9.97;47.13;102657.47;1782208;80;20262;-72
2021/10/09 01:07:17;;;;;;;26.52;9.83;;;;;;;9.95;47.21;102648.51;1760627;81;20199;-72
2021/10/09 01:09:50;;;;;;;30.68;12.00;;;;;;;9.93;47.38;102643.71;1737665;82;21356;-72
2021/10/09 01:12:24;;;;;;;36.75;10.28;;;;;;;9.93;47.51;102638.67;1701806;84;21369;-71
2021/10/09 01:14:58;;;;;;;27.37;10.30;;;;;;;9.92;47.64;102646.69;1701719;84;21764;-71
2021/10/09 01:17:31;;;;;;;25.90;11.22;;;;;;;9.92;47.67;102640.58;1701848;84;21191;-73
2021/10/09 01:20:04;;;;;;;29.48;10.15;;;;;;;9.92;47.73;102647.52;1701557;84;21781;-71
2021/10/09 01:22:39;;;;;;;36.40;10.93;;;;;;;9.92;47.65;102646.13;1736481;82;21398;-71
2021/10/09 01:25:16;;;;;;;38.63;11.30;;;;;;;9.91;47.85;102646.36;1736633;82;21707;-71
2021/10/09 01:27:48;;;;;;;32.98;10.72;;;;;;;9.88;48.06;102642.09;1736860;82;21333;-71
2021/10/09 01:30:25;;;;;;;33.83;11.15;;;;;;;9.87;48.26;102645.93;1736789;81;21250;-72
2021/10/09 01:32:57;;;;;;;34.25;11.80;;;;;;;9.87;48.37;102647.31;1735343;82;21712;-78
2021/10/09 01:35:30;;;;;;;41.97;13.73;;;;;;;9.86;48.37;102641.41;1741895;80;21340;-72
2021/10/09 01:38:03;;;;;;;29.18;12.03;;;;;;;9.86;48.42;102652.52;1768327;81;21929;-70
2021/10/09 01:40:39;;;;;;;34.65;11.73;;;;;;;9.86;48.40;102651.13;1767976;81;21371;-72
2021/10/09 01:43:16;;;;;;;30.37;12.95;;;;;;;9.85;48.46;102667.45;1768096;81;21368;-71
2021/10/09 01:45:49;;;;;;;36.28;13.38;;;;;;;9.84;48.37;102665.75;1768182;81;21317;-71
2021/10/09 01:48:35;;;;;;;38.63;12.75;;;;;;;9.85;48.44;102660.52;1768176;81;21360;-72
2021/10/09 01:51:10;;;;;;;31.27;12.28;;;;;;;9.83;48.56;102667.33;1768156;81;21320;-71
2021/10/09 01:53:42;;;;;;;37.98;12.60;;;;;;;9.81;48.69;102663.41;1768187;81;21893;-71
2021/10/09 01:56:18;;;;;;;30.50;13.08;;;;;;;9.81;48.75;102671.73;1767958;81;21269;-72
2021/10/09 01:58:50;;;;;;;30.90;13.03;;;;;;;9.80;48.73;102669.15;1768184;81;21827;-71
2021/10/09 02:01:28;;;;;;;36.77;12.75;;;;;;;9.78;48.74;102666.58;1765408;81;21838;-71
2021/10/09 02:04:02;;;;;;;45.60;13.83;;;;;;;9.77;48.83;102676.48;1768278;81;21170;-71
2021/10/09 02:06:36;;;;;;;34.75;14.47;;;;;;;9.75;49.04;102673.94;1768012;81;21922;-72
2021/10/09 02:09:10;;;;;;;30.17;12.07;;;;;;;9.74;49.11;102673.59;1768323;81;21785;-73
2021/10/09 02:11:45;;;;;;;34.05;12.88;;;;;;;9.74;49.15;102681.91;1768282;81;21866;-72
2021/10/09 02:14:28;;;;;;;31.48;12.55;;;;;;;9.73;49.00;102681.59;1768120;81;21743;-72
2021/10/09 02:17:55;;;;;;;34.08;12.98;;;;;;;9.73;48.91;102681.59;1767840;81;21327;-73
2021/10/09 02:25:37;;;;;;;31.90;13.03;;;;;;;9.68;48.90;102681.34;1768050;79;21743;-71
2021/10/09 02:28:05;;;;;;;38.42;12.80;;;;;;;9.69;48.79;102680.83;1765754;81;21495;-72
2021/10/09 02:30:39;;;;;;;35.50;13.85;;;;;;;9.66;48.88;102671.55;1768239;81;21178;-69
2021/10/09 02:33:12;;;;;;;32.42;13.10;;;;;;;9.64;48.89;102673.65;1799030;79;21324;-71
2021/10/09 02:35:44;;;;;;;36.03;14.47;;;;;;;9.62;48.93;102675.23;1809366;79;21178;-71
2021/10/09 02:38:20;;;;;;;40.92;14.23;;;;;;;9.61;49.02;102681.01;1809306;79;21269;-70
2021/10/09 02:40:54;;;;;;;34.70;13.32;;;;;;;9.59;49.10;102682.59;1809385;79;21143;-72
2021/10/09 02:43:26;;;;;;;39.05;14.00;;;;;;;9.60;49.03;102682.08;1809349;79;21874;-71
2021/10/09 02:45:59;;;;;;;43.13;13.58;;;;;;;9.56;48.96;102674.70;1809401;79;21281;-72
2021/10/09 02:48:34;;;;;;;35.38;13.65;;;;;;;9.56;49.08;102673.31;1809598;79;21285;-69
2021/10/09 02:51:06;;;;;;;38.17;13.68;;;;;;;9.55;49.26;102682.66;1789444;79;21285;-71
2021/10/09 02:53:41;;;;;;;29.18;12.05;;;;;;;9.54;49.24;102674.03;1809260;79;21842;-75
2021/10/09 02:56:14;;;;;;;46.40;16.05;;;;;;;9.55;49.33;102681.83;1809200;79;21489;-73
2021/10/09 02:58:48;;;;;;;44.08;15.10;;;;;;;9.55;49.38;102679.89;1809219;79;21285;-70
2021/10/09 03:01:25;;;;;;;40.23;15.63;;;;;;;9.54;49.53;102682.34;1809191;79;21285;-72
2021/10/09 03:03:58;;;;;;;40.40;14.23;;;;;;;9.54;49.58;102676.80;1809278;79;21309;-69
2021/10/09 03:06:32;;;;;;;45.67;15.68;;;;;;;9.53;49.49;102673.70;1809192;79;21143;-73
2021/10/09 03:09:06;;;;;;;28.65;13.58;;;;;;;9.51;49.37;102676.36;1809419;79;21135;-70
2021/10/09 03:11:40;;;;;;;41.68;16.65;;;;;;;9.49;49.32;102675.16;1809213;79;21735;-71
2021/10/09 03:14:13;;;;;;;40.08;15.20;;;;;;;9.47;49.19;102673.14;1809260;79;21788;-76
2021/10/09 03:16:46;;;;;;;47.83;15.65;;;;;;;9.45;49.21;102675.27;1809350;79;21344;-74
2021/10/09 03:19:20;;;;;;;37.10;15.53;;;;;;;9.45;49.25;102676.66;1777423;78;21212;-76
2021/10/09 03:21:52;;;;;;;47.73;15.45;;;;;;;9.40;49.32;102665.32;1734659;82;21712;-72
2021/10/09 03:24:25;;;;;;;47.25;16.75;;;;;;;9.38;49.46;102657.75;1743156;82;21154;-72
2021/10/09 03:26:57;;;;;;;40.78;14.68;;;;;;;9.34;49.38;102655.05;1769851;81;21692;-78
2021/10/09 03:29:32;;;;;;;43.58;14.40;;;;;;;9.30;49.43;102655.12;1740918;82;21202;-76
2021/10/09 03:32:05;;;;;;;51.30;15.43;;;;;;;9.27;49.45;102651.38;1772976;81;21719;-71
2021/10/09 03:34:38;;;;;;;41.08;15.63;;;;;;;9.25;49.26;102645.72;1772318;79;21712;-71
2021/10/09 03:37:15;;;;;;;38.75;15.28;;;;;;;9.20;49.32;102644.95;1761160;81;21182;-71
2021/10/09 03:39:49;;;;;;;36.25;15.93;;;;;;;9.22;49.52;102646.11;1742831;82;21857;-71
2021/10/09 03:42:34;;;;;;;51.05;16.62;;;;;;;9.21;49.45;102649.42;1755528;81;21226;-72
2021/10/09 03:45:15;;;;;;;40.92;15.43;;;;;;;9.21;49.48;102654.10;1771787;81;21174;-71
2021/10/09 03:48:01;;;;;;;52.08;15.68;;;;;;;9.19;49.49;102659.84;1748944;79;21181;-72
2021/10/09 03:53:12;;;;;;;46.95;14.93;;;;;;;9.15;49.50;102650.75;1707868;84;21371;-72
2021/10/09 03:55:44;;;;;;;48.70;17.15;;;;;;;9.13;49.41;102658.42;1707884;84;21299;-73
2021/10/09 03:58:18;;;;;;;42.00;14.80;;;;;;;9.11;49.44;102655.02;1708048;84;21335;-74
2021/10/09 04:00:52;;;;;;;34.30;14.45;;;;;;;9.10;49.36;102661.07;1707871;84;21890;-73
2021/10/09 04:03:25;;;;;;;42.93;15.20;;;;;;;9.11;49.34;102661.94;1707764;84;21707;-79
2021/10/09 04:05:58;;;;;;;47.60;14.83;;;;;;;9.10;49.41;102651.89;1708040;84;21236;-75
2021/10/09 04:08:32;;;;;;;39.98;14.43;;;;;;;9.10;49.47;102651.89;1707535;83;21216;-75
2021/10/09 04:11:05;;;;;;;42.23;15.03;;;;;;;9.07;49.57;102648.98;1709520;82;21307;-73
2021/10/09 04:13:38;;;;;;;31.87;13.20;;;;;;;9.07;49.52;102655.91;1718048;82;21456;-76
2021/10/09 04:16:11;;;;;;;37.25;14.60;;;;;;;9.06;49.56;102658.36;1708019;84;21299;-71
2021/10/09 04:19:01;;;;;;;36.53;14.70;;;;;;;9.06;49.46;102657.53;1684363;83;22160;-71
2021/10/09 04:21:33;;;;;;;40.52;15.43;;;;;;;9.04;49.24;102658.23;1684398;85;21196;-73
2021/10/09 04:24:09;;;;;;;;;;;;;;;9.00;49.45;102653.63;1686822;83;21346;-72
2021/10/09 04:26:41;;;;;;;56.02;15.15;;;;;;;9.00;49.57;102659.17;1684483;83;20310;-73
2021/10/09 04:29:16;;;;;;;37.73;13.88;;;;;;;9.01;49.70;102662.27;1684545;85;21410;-74
2021/10/09 04:31:49;;;;;;;37.08;14.50;;;;;;;9.03;49.53;102660.69;1683641;85;21197;-74
2021/10/09 04:34:23;;;;;;;44.33;15.32;;;;;;;9.04;49.53;102661.88;1662713;85;21341;-73
2021/10/09 04:37:01;;;;;;;30.77;12.75;;;;;;;9.05;49.47;102666.36;1656705;86;21388;-73
2021/10/09 04:39:35;;;;;;;44.15;14.20;;;;;;;9.05;49.33;102663.59;1656739;85;22577;-72
2021/10/09 04:42:08;;;;;;;43.73;12.85;;;;;;;9.06;49.33;102665.29;1657807;85;21356;-68
2021/10/09 04:44:43;;;;;;;34.60;12.47;;;;;;;9.07;49.30;102668.93;1658483;85;21200;-73
2021/10/09 04:47:17;;;;;;;44.15;11.80;;;;;;;9.07;49.37;102664.23;1657265;86;21343;-73
2021/10/09 04:49:50;;;;;;;36.45;12.45;;;;;;;9.07;49.42;102685.01;1657175;85;21237;-73
2021/10/09 04:52:22;;;;;;;45.30;11.40;;;;;;;9.09;49.46;102688.45;1681265;83;21261;-74
2021/10/09 04:54:55;;;;;;;34.35;11.08;;;;;;;9.09;49.27;102684.30;1684948;83;21402;-73
2021/10/09 04:57:28;;;;;;;40.88;12.37;;;;;;;9.10;49.09;102685.14;1750651;80;21180;-73
2021/10/09 05:00:01;;;;;;;36.50;12.28;;;;;;;9.10;49.23;102693.45;1779326;80;21252;-73
2021/10/09 05:02:34;;;;;;;35.03;12.45;;;;;;;9.09;49.32;102688.45;1760084;81;21329;-72
2021/10/09 05:05:09;;;;;;;33.20;11.57;;;;;;;9.09;49.22;102687.59;1743508;81;21743;-72
2021/10/09 05:07:44;;;;;;;39.10;12.82;;;;;;;9.10;49.27;102683.75;1743366;82;21688;-75
2021/10/09 05:10:17;;;;;;;42.03;14.23;;;;;;;9.10;49.12;102681.85;1743613;82;21732;-73
2021/10/09 05:12:52;;;;;;;37.98;12.18;;;;;;;9.10;48.98;102693.45;1753250;79;21352;-73
2021/10/09 05:15:25;;;;;;;26.60;10.47;;;;;;;9.09;48.90;102690.36;1714038;84;21897;-72
2021/10/09 05:17:57;;;;;;;33.60;11.03;;;;;;;9.07;49.04;102682.23;1745257;81;21516;-71
2021/10/09 05:20:30;;;;;;;34.15;11.00;;;;;;;9.05;49.29;102687.69;1758486;80;21413;-70
2021/10/09 05:23:04;;;;;;;32.75;11.05;;;;;;;9.03;49.27;102693.42;1781693;80;21353;-71
2021/10/09 05:25:38;;;;;;;27.82;10.90;;;;;;;9.02;49.40;102693.09;1776918;80;21834;-72
2021/10/09 05:28:16;;;;;;;26.52;10.20;;;;;;;9.04;49.31;102694.26;1732187;82;21320;-71
2021/10/09 05:30:48;;;;;;;33.30;11.22;;;;;;;9.04;49.40;102693.73;1722159;80;21922;-70
2021/10/09 05:33:36;;;;;;;27.52;10.32;;;;;;;9.06;49.55;102684.69;1745339;81;22564;-71
2021/10/09 05:35:58;;;;;;;34.60;11.30;;;;;;;9.10;49.56;102694.32;1759966;79;21384;-72
2021/10/09 05:38:32;;;;;;;36.80;11.53;;;;;;;9.10;49.54;102692.06;1750030;81;21311;-74
2021/10/09 05:41:05;;;;;;;32.10;9.43;;;;;;;9.10;49.47;102692.94;1781654;79;21210;-73
2021/10/09 05:43:40;;;;;;;30.00;10.55;;;;;;;9.12;49.37;102704.66;1761338;80;21335;-71
2021/10/09 05:46:13;;;;;;;27.67;9.23;;;;;;;9.11;49.17;102697.96;1745736;81;21238;-71
2021/10/09 05:48:46;;;;;;;31.85;10.43;;;;;;;9.10;49.11;102694.32;1741911;81;21305;-74
2021/10/09 05:51:31;;;;;;;30.08;10.23;;;;;;;9.09;49.17;102689.84;1734735;80;21247;-72
2021/10/09 05:56:37;;;;;;;32.20;9.35;;;;;;;9.09;49.41;102692.61;1738892;81;21285;-71
2021/10/09 06:45:28;;;;;;;37.15;8.90;;;;;;;9.57;48.08;102688.89;1731632;81;22164;-75
2021/10/09 06:59:33;;;;;;;27.55;9.98;;;;;;;9.53;48.07;102683.41;1734589;81;21281;-76
2021/10/09 07:05:34;;;;;;;;;;;;;;;9.55;48.22;102690.15;1802088;79;21310;-79
2021/10/09 07:08:25;;;;;;;31.27;8.05;;;;;;;9.62;48.36;102688.27;1788913;78;20185;-71
2021/10/09 07:11:14;;;;;;;44.00;9.08;;;;;;;9.69;48.24;102683.09;1800837;79;21355;-77
2021/10/09 07:13:50;;;;;;;36.83;9.40;;;;;;;9.76;47.85;102683.97;1800368;77;21400;-85
2021/10/09 07:16:31;;;;;;;35.38;8.65;;;;;;;9.80;47.59;102674.70;1800736;77;21400;-74
2021/10/09 07:19:04;;;;;;;32.07;8.63;;;;;;;9.81;47.59;102678.66;1796319;79;21842;-74
2021/10/09 07:21:39;;;;;;;31.97;9.35;;;;;;;9.84;47.69;102685.16;1793665;79;21691;-72
2021/10/09 07:24:16;;;;;;;37.13;9.35;;;;;;;9.84;47.38;102678.23;1698594;82;21187;-73
2021/10/09 07:26:49;;;;;;;39.58;8.45;;;;;;;9.88;47.56;102685.61;1707963;82;21756;-75
2021/10/09 07:29:22;;;;;;;31.15;9.68;;;;;;;9.92;47.62;102681.37;1717776;82;21384;-75
2021/10/09 07:31:55;;;;;;;35.05;8.20;;;;;;;9.96;47.74;102687.67;1707336;83;21357;-75
2021/10/09 07:34:30;;;;;;;40.85;8.43;;;;;;;9.98;47.81;102684.15;1706725;83;21303;-73
2021/10/09 07:37:03;;;;;;;36.90;8.55;;;;;;;10.04;47.80;102682.52;1735764;82;21270;-70
2021/10/09 07:39:35;;;;;;;28.40;9.20;;;;;;;10.10;47.27;102689.45;1726783;83;21349;-71
2021/10/09 07:42:08;;;;;;;29.65;8.18;;;;;;;10.12;47.05;102685.09;1735800;82;21187;-71
2021/10/09 07:44:43;;;;;;;38.38;8.30;;;;;;;10.13;47.16;102682.12;1727177;83;21341;-72
2021/10/09 07:47:17;;;;;;;27.25;7.25;;;;;;;10.17;47.22;102688.11;1723554;82;21681;-76
2021/10/09 07:49:51;;;;;;;25.65;6.67;;;;;;;10.21;47.32;102687.47;1704312;82;21344;-71
2021/10/09 07:52:26;;;;;;;41.20;8.73;;;;;;;10.30;47.51;102687.63;1711499;83;21416;-73
2021/10/09 07:54:59;;;;;;;38.80;7.40;;;;;;;10.35;47.27;102682.27;1714365;83;21184;-72
2021/10/09 07:57:31;;;;;;;40.85;7.80;;;;;;;10.40;47.19;102680.27;1703897;83;21195;-72
2021/10/09 08:00:08;;;;;;;29.80;7.87;;;;;;;10.43;46.89;102683.48;1726435;81;22985;-73
2021/10/09 08:02:51;;;;;;;45.98;8.00;;;;;;;10.44;47.03;102685.19;1720754;81;21713;-74
2021/10/09 08:05:26;;;;;;;17.40;6.78;;;;;;;10.49;46.85;102686.80;1731835;81;21317;-74
2021/10/09 08:07:59;;;;;;;36.77;8.18;;;;;;;10.55;46.96;102687.35;1687770;83;21250;-75
2021/10/09 08:10:32;;;;;;;39.42;7.20;;;;;;;10.63;47.07;102691.30;1702603;84;21342;-76
2021/10/09 08:13:05;;;;;;;21.30;6.53;;;;;;;10.71;47.16;102692.48;1706385;83;21891;-73
2021/10/09 08:15:37;;;;;;;33.42;8.05;;;;;;;10.81;47.00;102690.15;1702440;84;21250;-72
2021/10/09 08:18:12;;;;;;;42.40;8.08;;;;;;;10.89;46.47;102698.27;1714326;83;21333;-73
2021/10/09 08:20:49;;;;;;;32.55;7.55;;;;;;;10.90;46.25;102689.41;1716594;83;21409;-70
2021/10/09 08:23:22;;;;;;;24.10;7.03;;;;;;;10.92;46.50;102695.59;1719096;83;21393;-72
2021/10/09 08:39:49;;;;;;;24.07;7.50;;;;;;;11.18;46.09;102689.50;1733003;82;21348;-71
2021/10/09 08:42:22;;;;;;;36.03;8.95;;;;;;;11.17;46.04;102686.92;1733331;83;21396;-71
2021/10/09 08:44:56;;;;;;;33.63;7.33;;;;;;;11.17;46.20;102689.70;1733138;83;21277;-74
2021/10/09 08:47:33;;;;;;;25.48;8.60;;;;;;;11.20;46.36;102686.51;1713429;83;21368;-76
2021/10/09 08:50:08;;;;;;;30.97;8.83;;;;;;;11.24;46.20;102696.97;1730732;83;21393;-76
2021/10/09 08:53:09;;;;;;;46.95;7.95;;;;;;;11.27;45.93;102693.78;1733365;81;21325;-76
2021/10/09 08:55:48;;;;;;;40.58;9.98;;;;;;;11.24;45.91;102692.80;1733340;81;21328;-75
2021/10/09 08:58:40;;;;;;;43.83;9.00;;;;;;;11.21;46.31;102698.81;1733166;81;21333;-75
2021/10/09 09:01:25;;;;;;;32.40;10.13;;;;;;;11.22;46.64;102701.91;1750481;78;21348;-78
2021/10/09 09:40:43;;;;;;;38.50;7.85;;;;;;;11.66;45.55;102688.16;1757266;80;21356;-73
2021/10/09 09:43:20;;;;;;;39.78;8.83;;;;;;;11.70;45.73;102693.61;1756263;81;21312;-71
2021/10/09 09:45:52;;;;;;;;;;;;;;;11.74;45.31;102688.45;1762897;81;21179;-74
2021/10/09 09:48:25;;;;;;;50.92;9.05;;;;;;;11.74;44.88;102680.95;1753312;81;20248;-75
2021/10/09 09:50:58;;;;;;;41.33;9.40;;;;;;;11.74;45.01;102683.73;1757362;81;21164;-72
2021/10/09 09:53:30;;;;;;;42.95;9.30;;;;;;;11.79;45.24;102696.45;1750210;81;21262;-74
2021/10/09 09:56:04;;;;;;;33.60;9.53;;;;;;;11.87;45.45;102687.02;1753854;81;21357;-72
2021/10/09 09:58:44;;;;;;;46.08;10.85;;;;;;;11.95;45.73;102689.55;1688822;84;21393;-72
2021/10/09 10:01:17;;;;;;;24.40;8.63;;;;;;;12.02;45.29;102680.62;1748604;80;21839;-73
2021/10/09 10:03:50;;;;;;;44.23;10.82;;;;;;;12.06;44.94;102688.33;1762883;81;21222;-70
2021/10/09 10:06:22;;;;;;;32.17;8.08;;;;;;;12.06;44.69;102689.73;1764454;81;21242;-72
2021/10/09 10:08:57;;;;;;;31.05;9.28;;;;;;;12.06;44.87;102683.28;1753633;81;21686;-73
2021/10/09 10:11:32;;;;;;;37.08;9.95;;;;;;;12.07;45.02;102677.50;1758109;81;21401;-71
2021/10/09 10:14:06;;;;;;;37.85;9.15;;;;;;;12.08;44.95;102680.60;1744240;81;21696;-71
2021/10/09 10:16:39;;;;;;;41.55;10.35;;;;;;;12.10;44.78;102684.56;1805550;79;21375;-71
2021/10/09 10:19:12;;;;;;;22.87;6.92;;;;;;;12.10;44.88;102692.36;1782815;79;21747;-73
2021/10/09 10:21:47;;;;;;;40.00;8.55;;;;;;;12.12;44.76;102684.66;1815650;79;21878;-73
2021/10/09 10:24:48;;;;;;;46.80;8.93;;;;;;;12.13;44.86;102676.62;1815601;79;21332;-74
2021/10/09 10:27:42;;;;;;;38.25;8.85;;;;;;;12.16;45.08;102671.98;1815622;79;21337;-73
2021/10/09 10:30:21;;;;;;;44.67;8.83;;;;;;;12.22;45.27;102673.87;1815882;79;21178;-73
2021/10/09 10:33:02;;;;;;;50.00;10.25;;;;;;;12.30;45.25;102683.91;1815632;79;21312;-74
2021/10/09 10:35:40;;;;;;;;;;;;;;;12.34;45.23;102683.80;1818547;79;21857;-73
2021/10/09 10:38:33;;;;;;;34.15;9.15;;;;;;;12.41;44.98;102667.89;1815634;79;20260;-74
2021/10/09 10:41:04;;;;;;;56.15;9.15;;;;;;;12.43;44.77;102684.70;1815456;79;21176;-74
2021/10/09 10:46:36;;;;;;;42.20;10.30;;;;;;;12.52;44.46;102679.16;1815934;79;21364;-72
2021/10/09 10:57:12;;;;;;;43.85;8.95;;;;;;;12.69;44.24;102681.73;1814801;79;21692;-74
2021/10/09 10:59:52;;;;;;;32.53;7.10;;;;;;;12.74;43.93;102690.27;1815550;79;21830;-72
2021/10/09 11:02:41;;;;;;;44.85;8.85;;;;;;;12.75;43.88;102691.97;1811491;79;21456;-72
2021/10/09 11:05:15;;;;;;;43.13;9.25;;;;;;;12.76;43.68;102685.84;1797469;79;21733;-73
2021/10/09 11:07:51;;;;;;;35.20;8.53;;;;;;;12.76;43.79;102689.50;1804306;79;21235;-73
2021/10/09 11:10:24;;;;;;;43.10;8.90;;;;;;;12.80;44.03;102687.98;1738472;82;21321;-73
2021/10/09 11:12:59;;;;;;;39.10;9.43;;;;;;;12.86;43.90;102697.36;1804381;79;21199;-73
2021/10/09 11:15:36;;;;;;;33.50;8.10;;;;;;;12.88;43.58;102697.97;1738622;82;21191;-73
2021/10/09 11:18:10;;;;;;;40.28;9.18;;;;;;;12.87;43.88;102692.95;1686628;82;21190;-74
2021/10/09 11:20:46;;;;;;;38.20;7.33;;;;;;;12.89;43.98;102686.60;1804314;79;21178;-73
2021/10/09 11:23:17;;;;;;;30.43;7.67;;;;;;;12.90;43.68;102696.67;1737793;82;21843;-71
2021/10/09 11:25:53;;;;;;;37.48;7.00;;;;;;;12.89;43.83;102698.31;1749817;81;21158;-71
2021/10/09 11:28:33;;;;;;;39.00;7.42;;;;;;;12.88;43.65;102691.88;1733458;80;21401;-71
2021/10/09 11:31:07;;;;;;;34.78;7.35;;;;;;;12.86;43.84;102695.44;1796238;79;21298;-73
2021/10/09 11:33:40;;;;;;;33.50;6.40;;;;;;;12.82;44.07;102698.35;1729528;82;21406;-73
2021/10/09 11:36:15;;;;;;;34.78;7.55;;;;;;;12.82;44.17;102695.56;1801954;78;21262;-76
2021/10/09 11:38:48;;;;;;;42.35;8.45;;;;;;;12.81;44.23;102691.59;1752837;81;21395;-72
2021/10/09 11:41:23;;;;;;;32.08;6.53;;;;;;;12.82;44.63;102691.91;1758027;81;21170;-71
2021/10/09 11:44:13;;;;;;;34.45;6.58;;;;;;;12.84;44.98;102708.73;1787314;79;21230;-73
2021/10/09 11:55:30;;;;;;;28.70;6.03;;;;;;;12.98;44.61;102713.70;1789763;79;22829;-75
2021/10/09 11:58:08;;;;;;;31.57;7.05;;;;;;;13.01;43.92;102719.68;1784779;77;21818;-71
2021/10/09 12:00:44;;;;;;;35.45;7.05;;;;;;;13.01;43.90;102725.81;1774516;77;21313;-74
2021/10/09 12:03:33;;;;;;;35.83;6.80;;;;;;;13.04;43.93;102713.66;1773377;80;21340;-74
2021/10/09 12:06:11;;;;;;;32.40;7.28;;;;;;;13.08;44.24;102723.27;1774481;77;21207;-71
2021/10/09 12:08:58;;;;;;;41.85;7.08;;;;;;;13.17;43.83;102714.08;1793496;79;21194;-73
2021/10/09 12:11:30;;;;;;;26.42;6.25;;;;;;;13.22;43.68;102715.12;1788688;78;21356;-75
2021/10/09 12:14:09;;;;;;;49.03;9.47;;;;;;;13.31;43.62;102717.92;1768055;79;21376;-73
2021/10/09 12:16:49;;;;;;;34.83;5.97;;;;;;;13.37;43.18;102719.79;1735978;81;21680;-74
2021/10/09 12:19:30;;;;;;;18.95;4.95;;;;;;;13.37;43.00;102715.61;1762885;79;21403;-78
2021/10/09 12:22:11;;;;;;;27.25;5.35;;;;;;;13.36;43.06;102722.27;1790877;78;21342;-74
2021/10/09 12:24:56;;;;;;;37.73;7.28;;;;;;;13.35;43.35;102716.39;1796210;79;21409;-74
2021/10/09 12:27:51;;;;;;;43.00;7.87;;;;;;;13.33;43.45;102722.72;1721391;81;21244;-76
2021/10/09 12:30:48;;;;;;;36.73;5.80;;;;;;;13.32;43.39;102726.59;1762543;79;21360;-74
2021/10/09 12:33:47;;;;;;;39.95;7.60;;;;;;;13.28;43.41;102724.50;1769461;79;21214;-80
2021/10/09 12:36:40;;;;;;;36.10;6.53;;;;;;;13.30;43.85;102727.38;1732918;81;21375;-76
2021/10/09 12:39:44;;;;;;;;;;;;;;;;;;;;;
2021/10/09 12:42:30;;;;;;;19.20;5.65;;;;;;;13.31;44.06;102727.69;1716753;82;21372;-70
2021/10/09 12:45:24;;;;;;;38.13;6.50;;;;;;;13.32;44.25;102727.16;1670269;80;21828;-75
2021/10/09 12:48:20;;;;;;;22.83;6.17;;;;;;;13.34;44.09;102731.43;1654441;84;21329;-73
2021/10/09 12:51:15;;;;;;;18.73;5.35;;;;;;;13.35;44.23;102726.68;1693278;83;21276;-80
2021/10/09 12:54:15;;;;;;;29.07;6.00;;;;;;;13.37;44.49;102732.88;1690927;82;21326;-75
2021/10/09 12:57:12;;;;;;;35.95;6.42;;;;;;;13.33;43.86;102722.72;1718814;82;21472;-71
2021/10/09 13:00:08;;;;;;;32.05;6.03;;;;;;;13.33;43.86;102722.72;1722099;82;21328;-73
2021/10/09 13:03:05;;;;;;;29.77;5.67;;;;;;;13.29;43.78;102718.70;1737686;82;21351;-78
2021/10/09 13:06:16;;;;;;;34.25;6.80;;;;;;;13.30;44.08;102733.48;1709993;82;21242;-72
2021/10/09 13:09:13;;;;;;;24.77;6.35;;;;;;;13.28;44.37;102717.00;1711704;82;21407;-69
2021/10/09 13:12:15;;;;;;;32.35;5.80;;;;;;;13.28;44.37;102717.00;1735515;82;21209;-76
2021/10/09 13:15:03;;;;;;;38.25;5.78;;;;;;;13.29;44.49;102715.91;1726901;82;21197;-71
2021/10/09 13:17:55;;;;;;;38.73;6.85;;;;;;;13.31;44.50;102716.52;1726065;82;21174;-74
2021/10/09 13:20:49;;;;;;;24.45;6.42;;;;;;;13.33;44.66;102715.73;1738545;82;21202;-76
2021/10/09 13:23:42;;;;;;;25.37;6.30;;;;;;;13.37;44.80;102711.42;1740333;82;22374;-71
2021/10/09 13:26:38;;;;;;;35.08;6.17;;;;;;;13.41;44.81;102706.23;1617871;87;21309;-77
2021/10/09 13:29:36;;;;;;;29.77;6.17;;;;;;;13.43;44.39;102709.11;1570337;90;21333;-75
2021/10/09 13:32:31;;;;;;;32.42;5.35;;;;;;;13.44;44.35;102713.59;1570403;90;21245;-76
2021/10/09 13:35:07;;;;;;;27.70;5.53;;;;;;;13.46;44.70;102717.00;1591470;90;21397;-75
2021/10/09 13:37:52;;;;;;;30.88;5.00;;;;;;;13.46;44.42;102714.21;1582638;90;21865;-76
2021/10/09 13:40:26;;;;;;;38.28;7.25;;;;;;;13.45;44.51;102707.49;1587937;90;22135;-78
2021/10/09 13:42:59;;;;;;;30.32;6.00;;;;;;;13.44;44.36;102708.02;1584251;90;21349;-75
2021/10/09 13:45:34;;;;;;;26.20;6.22;;;;;;;13.44;44.37;102711.37;1592411;89;21312;-78
2021/10/09 13:48:43;;;;;;;31.93;6.47;;;;;;;13.40;44.39;102719.35;1608054;89;21308;-78
2021/10/09 13:51:29;;;;;;;33.05;6.42;;;;;;;13.37;44.33;102724.50;1571171;89;21385;-71
2021/10/09 13:54:13;;;;;;;30.12;7.30;;;;;;;13.30;44.59;102719.00;1560228;90;21280;-73
2021/10/09 13:56:46;;;;;;;43.55;7.53;;;;;;;13.26;44.90;102723.88;1612688;89;21289;-68
2021/10/09 13:59:19;;;;;;;28.30;6.05;;;;;;;13.21;44.87;102726.50;1594650;87;21410;-71
2021/10/09 14:01:53;;;;;;;35.50;6.90;;;;;;;13.16;44.91;102711.84;1598467;89;21200;-74
2021/10/09 14:04:26;;;;;;;36.63;7.72;;;;;;;13.14;45.05;102718.73;1603137;89;21201;-73
2021/10/09 14:06:59;;;;;;;32.38;6.55;;;;;;;13.11;45.31;102717.77;1593643;89;21407;-71
2021/10/09 14:09:32;;;;;;;30.08;6.97;;;;;;;13.08;45.61;102721.03;1599580;89;21396;-72
2021/10/09 14:12:06;;;;;;;40.80;8.20;;;;;;;13.06;45.77;102712.89;1602611;89;21293;-71
2021/10/09 14:14:40;;;;;;;45.20;8.05;;;;;;;13.05;45.96;102718.16;1594595;89;21402;-72
2021/10/09 14:17:14;;;;;;;30.30;6.62;;;;;;;13.03;45.91;102713.33;1632822;83;21199;-74
2021/10/09 14:19:54;;;;;;;32.00;7.83;;;;;;;13.02;45.77;102719.16;1679769;84;21396;-71
2021/10/09 14:22:32;;;;;;;22.00;5.90;;;;;;;13.00;46.02;102717.11;1692633;83;21341;-86
2021/10/09 14:25:11;;;;;;;36.17;6.92;;;;;;;12.99;46.13;102713.48;1737169;81;21951;-74
2021/10/09 14:27:44;;;;;;;25.65;6.70;;;;;;;12.99;46.19;102719.59;1752504;81;21374;-74